Time;durP1;ratioP1;P1;durP2;ratioP2;P2;SDS_P1;SDS_P2;PMS_P1;PMS_P2;Temp;Humidity;BMP_temperature;BMP_pressure;BME280_temperature;BME280_humidity;BME280_pressure;Samples;Min_cycle;Max_cycle;Signal;HPM_P1;HPM_P2
2021/01/25 00:02:18;;;;;;;11.90;8.23;;;;;;;2.22;83.07;99759.50;10222749;28;20056;-67
2021/01/25 00:07:14;;;;;;;13.70;8.60;;;;;;;2.14;83.55;99768.22;10227677;28;20057;-67
2021/01/25 00:12:11;;;;;;;16.58;9.15;;;;;;;2.19;83.45;99767.38;10228222;28;20129;-68
2021/01/25 00:17:07;;;;;;;15.60;9.93;;;;;;;2.23;83.14;99769.22;10221876;28;20049;-69
2021/01/25 00:22:03;;;;;;;12.20;8.38;;;;;;;2.27;83.00;99767.53;10219353;28;20411;-68
2021/01/25 00:26:59;;;;;;;12.40;9.13;;;;;;;2.23;83.62;99771.91;10219531;28;20045;-68
2021/01/25 00:31:55;;;;;;;12.63;7.90;;;;;;;2.13;83.43;99782.78;10215026;28;20412;-68
2021/01/25 00:36:51;;;;;;;13.00;8.80;;;;;;;2.21;83.04;99774.09;10218673;28;20045;-67
2021/01/25 00:41:47;;;;;;;9.70;7.32;;;;;;;2.14;83.22;99789.81;10210875;28;20045;-67
2021/01/25 00:46:43;;;;;;;10.85;6.80;;;;;;;2.01;83.31;99785.06;10223862;28;20045;-66
2021/01/25 00:51:41;;;;;;;8.75;6.38;;;;;;;2.07;82.60;99783.94;10214983;28;20157;-69
2021/01/25 00:56:37;;;;;;;9.85;6.03;;;;;;;2.05;82.99;99780.72;10222597;28;20077;-69
2021/01/25 01:01:33;;;;;;;8.85;6.10;;;;;;;1.85;83.44;99781.69;10230910;28;20639;-70
2021/01/25 01:06:29;;;;;;;13.93;7.35;;;;;;;1.88;83.45;99791.91;10230981;28;20069;-71
2021/01/25 01:11:25;;;;;;;7.70;5.60;;;;;;;1.87;83.74;99795.69;10228753;28;20563;-67
2021/01/25 01:16:21;;;;;;;15.60;5.82;;;;;;;1.98;83.17;99794.53;10219848;28;20041;-68
2021/01/25 01:21:17;;;;;;;8.10;5.50;;;;;;;1.89;83.48;99797.03;10228835;28;20472;-69
2021/01/25 01:26:13;;;;;;;9.07;4.40;;;;;;;1.89;82.95;99801.63;10231103;28;20156;-67
2021/01/25 01:31:10;;;;;;;7.60;4.95;;;;;;;1.78;83.18;99798.19;10234280;28;20139;-68
2021/01/25 01:36:06;;;;;;;8.48;4.40;;;;;;;1.82;82.96;99796.53;10226067;28;20153;-67
2021/01/25 01:41:02;;;;;;;8.02;4.38;;;;;;;1.79;82.95;99793.63;10230490;28;20054;-67
2021/01/25 01:45:58;;;;;;;6.75;4.45;;;;;;;1.84;82.92;99799.78;10222690;28;20404;-67
2021/01/25 01:50:55;;;;;;;9.45;5.30;;;;;;;1.93;82.62;99799.97;10231979;28;20045;-68
2021/01/25 01:55:52;;;;;;;7.70;4.47;;;;;;;1.87;82.73;99801.88;10234017;28;20088;-67
2021/01/25 02:00:49;;;;;;;8.07;4.97;;;;;;;1.77;83.38;99804.69;10226524;28;20099;-68
2021/01/25 02:05:45;;;;;;;11.18;6.68;;;;;;;1.40;84.18;99811.41;11148789;22;20041;-67
2021/01/25 02:10:42;;;;;;;7.55;5.00;;;;;;;1.69;83.48;99816.03;10287074;28;20140;-67
2021/01/25 02:15:38;;;;;;;10.20;5.78;;;;;;;1.61;83.58;99813.97;10294604;28;20414;-69
2021/01/25 02:20:40;;;;;;;11.55;6.63;;;;;;;1.71;83.50;99813.88;10295742;28;20063;-68
2021/01/25 02:25:45;;;;;;;10.75;7.28;;;;;;;1.73;83.73;99811.72;10302735;28;20044;-66
2021/01/25 02:30:43;;;;;;;10.20;7.00;;;;;;;1.77;82.80;99807.38;10302869;28;20049;-69
2021/01/25 02:35:39;;;;;;;10.48;7.22;;;;;;;1.72;82.59;99810.13;10298417;28;20513;-68
2021/01/25 02:40:37;;;;;;;10.50;7.65;;;;;;;1.86;82.36;99805.69;10296128;28;20123;-67
2021/01/25 02:45:33;;;;;;;11.50;7.03;;;;;;;1.77;82.76;99812.75;10286264;28;20102;-67
2021/01/25 02:50:29;;;;;;;14.05;7.63;;;;;;;1.83;82.50;99816.22;10294685;28;20056;-67
2021/01/25 02:55:26;;;;;;;11.13;6.97;;;;;;;1.64;83.88;99827.66;10289405;28;20048;-66
2021/01/25 03:00:22;;;;;;;10.23;5.85;;;;;;;1.72;83.59;99820.91;10298270;28;20048;-65
2021/01/25 03:05:18;;;;;;;10.18;7.10;;;;;;;1.86;83.02;99821.84;10290207;28;20068;-66
2021/01/25 03:10:14;;;;;;;10.10;6.22;;;;;;;1.74;83.14;99823.28;10288706;28;20053;-66
2021/01/25 03:15:13;;;;;;;8.68;6.13;;;;;;;1.76;83.82;99821.91;10287818;28;20067;-66
2021/01/25 03:20:09;;;;;;;9.95;5.60;;;;;;;1.86;83.43;99821.06;10300517;28;21994;-66
2021/01/25 03:25:06;;;;;;;11.90;5.55;;;;;;;1.82;83.48;99820.81;10288370;28;20064;-66
2021/01/25 03:30:09;;;;;;;8.50;5.07;;;;;;;1.79;83.29;99824.06;10310281;28;20052;-68
2021/01/25 03:35:11;;;;;;;8.77;5.53;;;;;;;1.69;83.35;99832.22;10294998;28;20052;-68
2021/01/25 03:40:08;;;;;;;10.50;6.75;;;;;;;1.74;83.85;99845.69;10295077;28;20043;-68
2021/01/25 03:45:05;;;;;;;11.77;6.70;;;;;;;1.58;83.87;99849.53;10290690;28;20049;-67
2021/01/25 03:50:02;;;;;;;13.70;7.97;;;;;;;1.52;84.52;99853.34;10300710;28;20081;-67
2021/01/25 03:55:00;;;;;;;18.70;9.82;;;;;;;1.45;84.12;99853.66;10295204;28;20049;-68
2021/01/25 03:59:56;;;;;;;12.02;8.30;;;;;;;1.57;84.22;99853.31;10282171;28;20045;-67
2021/01/25 04:04:52;;;;;;;15.35;9.95;;;;;;;1.58;83.87;99860.31;10288705;28;20143;-67
2021/01/25 04:09:48;;;;;;;16.60;10.85;;;;;;;1.49;83.74;99856.63;10275671;28;20072;-66
2021/01/25 04:14:44;;;;;;;18.90;10.77;;;;;;;1.56;83.85;99865.19;10288707;28;20424;-66
2021/01/25 04:19:40;;;;;;;17.67;12.30;;;;;;;1.55;83.88;99869.75;10295929;28;20045;-69
2021/01/25 04:24:36;;;;;;;19.40;12.75;;;;;;;1.39;83.90;99871.75;10297859;28;20087;-65
2021/01/25 04:29:32;;;;;;;21.45;13.65;;;;;;;1.36;83.81;99876.88;10288420;28;20056;-66
2021/01/25 04:34:28;;;;;;;23.63;15.10;;;;;;;1.32;83.80;99876.59;10282247;28;20056;-66
2021/01/25 04:39:24;;;;;;;23.42;13.57;;;;;;;1.33;84.25;99872.84;10286750;28;20048;-66
2021/01/25 04:44:22;;;;;;;19.42;12.60;;;;;;;1.45;84.07;99881.41;10296237;28;20433;-66
2021/01/25 04:49:19;;;;;;;19.60;13.52;;;;;;;1.32;84.27;99884.69;10282188;28;20052;-68
2021/01/25 04:54:16;;;;;;;20.70;13.45;;;;;;;1.32;84.31;99892.78;10295934;28;20151;-68
2021/01/25 04:59:13;;;;;;;22.27;13.45;;;;;;;1.48;83.96;99888.13;10292273;28;20048;-65
2021/01/25 05:04:09;;;;;;;21.45;13.85;;;;;;;1.40;84.15;99894.09;10294048;28;20060;-65
2021/01/25 05:09:05;;;;;;;17.92;12.52;;;;;;;1.46;83.64;99893.81;10285484;28;20050;-65
2021/01/25 05:14:05;;;;;;;18.42;11.55;;;;;;;1.36;83.64;99890.34;10287554;28;20058;-66
2021/01/25 05:19:05;;;;;;;19.00;12.20;;;;;;;1.41;83.75;99896.50;10278773;28;20131;-67
2021/01/25 05:24:05;;;;;;;19.52;11.73;;;;;;;1.37;84.16;99900.84;10289928;28;20049;-68
2021/01/25 05:29:03;;;;;;;20.75;12.00;;;;;;;1.23;84.20;99905.19;10285126;28;20056;-68
2021/01/25 05:33:59;;;;;;;21.83;13.02;;;;;;;1.37;84.22;99905.41;10297663;28;20059;-67
2021/01/25 05:38:56;;;;;;;18.77;11.43;;;;;;;1.45;84.26;99908.34;10285058;28;20041;-67
2021/01/25 05:43:52;;;;;;;21.33;11.30;;;;;;;1.46;83.75;99899.19;10291594;28;20135;-67
2021/01/25 05:48:58;;;;;;;18.42;11.13;;;;;;;1.47;83.08;99900.00;10296687;28;20138;-69
2021/01/25 05:53:54;;;;;;;19.33;12.73;;;;;;;1.42;83.13;99903.50;10287731;28;20059;-68
2021/01/25 05:58:50;;;;;;;19.88;11.95;;;;;;;1.58;83.10;99911.50;10288995;28;20826;-69
2021/01/25 06:03:46;;;;;;;19.20;12.18;;;;;;;1.57;82.48;99912.59;10289959;28;20056;-67
2021/01/25 06:08:47;;;;;;;21.05;12.10;;;;;;;1.67;82.49;99916.06;10283834;28;20124;-66
2021/01/25 06:14:08;;;;;;;17.70;11.82;;;;;;;1.73;82.71;99919.50;10283403;28;20045;-66
2021/01/25 06:19:09;;;;;;;19.23;11.75;;;;;;;1.67;82.48;99926.00;10284565;28;20048;-66
2021/01/25 06:24:07;;;;;;;17.45;11.07;;;;;;;1.66;82.78;99932.50;10290600;28;20498;-66
2021/01/25 06:29:05;;;;;;;19.55;12.80;;;;;;;1.68;82.86;99933.81;10296559;28;20494;-67
2021/01/25 06:34:03;;;;;;;20.08;12.95;;;;;;;1.77;82.64;99931.34;10285916;28;20040;-67
2021/01/25 06:38:59;;;;;;;21.23;12.50;;;;;;;1.69;82.70;99945.41;10299686;28;20040;-66
2021/01/25 06:43:56;;;;;;;18.92;13.13;;;;;;;1.70;82.97;99952.41;10287619;28;20918;-66
2021/01/25 06:48:52;;;;;;;18.85;11.98;;;;;;;1.74;82.55;99961.56;10291079;28;20532;-65
2021/01/25 06:53:50;;;;;;;17.92;12.30;;;;;;;1.40;83.42;99964.94;10283303;28;20537;-67
2021/01/25 06:58:50;;;;;;;21.67;13.38;;;;;;;1.56;83.49;99972.97;10292847;28;20506;-67
2021/01/25 07:03:51;;;;;;;19.67;13.05;;;;;;;1.39;84.01;99978.66;10282628;28;20098;-67
2021/01/25 07:08:56;;;;;;;22.60;12.65;;;;;;;1.39;83.77;99990.28;10294926;28;20048;-67
2021/01/25 07:13:53;;;;;;;21.17;13.80;;;;;;;1.45;83.65;99989.16;10294048;28;20048;-67
2021/01/25 07:18:51;;;;;;;18.20;12.57;;;;;;;1.47;83.86;99992.38;10274234;28;20053;-67
2021/01/25 07:23:49;;;;;;;25.08;13.13;;;;;;;1.54;83.62;99997.47;10280762;28;20045;-67
2021/01/25 07:28:45;;;;;;;16.60;11.27;;;;;;;1.53;82.93;100001.25;10284803;28;20040;-67
2021/01/25 07:33:41;;;;;;;22.10;12.70;;;;;;;1.47;83.08;100005.84;10283625;28;20060;-67
2021/01/25 07:38:38;;;;;;;24.05;13.80;;;;;;;1.42;82.89;100005.88;10283923;28;20519;-67
2021/01/25 07:43:34;;;;;;;22.33;13.98;;;;;;;1.55;83.30;100009.06;10287885;28;20555;-67
2021/01/25 07:48:30;;;;;;;21.55;14.82;;;;;;;1.44;83.37;100009.09;10287054;28;20051;-67
2021/01/25 07:53:34;;;;;;;22.15;12.30;;;;;;;1.57;82.87;100023.06;10274898;28;20661;-67
2021/01/25 07:58:32;;;;;;;24.05;13.73;;;;;;;1.49;82.63;100037.13;10274187;28;20053;-67
2021/01/25 08:03:33;;;;;;;25.15;16.55;;;;;;;1.34;83.11;100046.81;10277788;28;20049;-66
2021/01/25 08:08:31;;;;;;;30.88;17.23;;;;;;;1.44;83.07;100049.50;10269829;28;20072;-68
2021/01/25 08:19:25;;;;;;;28.63;18.55;;;;;;;1.35;83.77;100061.94;10262744;28;20045;-66
2021/01/25 08:24:42;;;;;;;33.70;18.63;;;;;;;1.36;83.71;100071.59;10278787;28;20044;-66
2021/01/25 08:29:41;;;;;;;36.28;20.02;;;;;;;1.34;83.55;100073.75;10278436;28;20059;-67
2021/01/25 08:34:37;;;;;;;45.00;23.15;;;;;;;1.41;83.62;100078.88;10267023;28;20180;-67
2021/01/25 08:40:11;;;;;;;47.65;25.45;;;;;;;1.45;83.99;100080.75;10278995;28;20044;-67
2021/01/25 08:45:14;;;;;;;45.08;24.65;;;;;;;1.55;83.26;100084.50;10272916;28;20460;-67
2021/01/25 08:50:37;;;;;;;44.22;24.23;;;;;;;1.54;83.14;100093.69;10280972;28;20044;-67
2021/01/25 08:55:57;;;;;;;42.53;24.27;;;;;;;1.56;83.03;100107.69;10283004;28;20041;-67
2021/01/25 09:01:28;;;;;;;41.67;22.73;;;;;;;1.36;83.31;100109.31;10293378;28;20040;-67
2021/01/25 09:06:26;;;;;;;47.30;24.13;;;;;;;1.06;84.17;100115.53;10281083;28;20133;-66
2021/01/25 09:11:24;;;;;;;36.88;20.13;;;;;;;1.11;83.59;100103.94;10288015;28;20076;-66
2021/01/25 09:16:23;;;;;;;25.50;14.10;;;;;;;0.99;83.47;100121.19;10282382;28;20056;-66
2021/01/25 09:21:22;;;;;;;21.38;12.00;;;;;;;1.20;82.85;100121.19;10285608;28;20180;-66
2021/01/25 09:26:29;;;;;;;25.52;14.80;;;;;;;1.16;83.10;100130.88;10299957;28;20047;-66
2021/01/25 09:31:36;;;;;;;;;;;;;;;;;;;;;
2021/01/25 09:36:33;;;;;;;32.40;16.35;;;;;;;1.22;82.92;100135.19;10299194;28;20079;-67
2021/01/25 09:41:35;;;;;;;33.08;17.80;;;;;;;1.18;83.09;100144.88;10288971;28;20615;-66
2021/01/25 09:46:32;;;;;;;31.45;16.70;;;;;;;1.14;83.27;100144.63;10298234;28;20123;-66
2021/01/25 09:51:28;;;;;;;29.65;15.20;;;;;;;1.30;82.86;100148.13;10299123;28;20054;-66
2021/01/25 09:56:24;;;;;;;24.35;12.50;;;;;;;1.29;82.26;100151.88;10304826;28;20111;-67
2021/01/25 10:01:32;;;;;;;32.83;15.88;;;;;;;1.22;82.99;100167.50;10294575;28;20040;-66
2021/01/25 10:06:32;;;;;;;32.17;18.00;;;;;;;1.30;82.51;100172.38;10288976;28;20056;-67
2021/01/25 10:11:29;;;;;;;32.40;17.27;;;;;;;1.44;82.48;100181.53;10302596;28;20055;-67
2021/01/25 10:16:25;;;;;;;33.00;17.23;;;;;;;1.47;82.14;100175.59;10301931;28;20110;-66
2021/01/25 10:21:25;;;;;;;35.05;17.02;;;;;;;1.28;82.87;100193.38;10285622;28;20052;-67
2021/01/25 10:26:21;;;;;;;30.88;16.48;;;;;;;1.01;83.22;100189.03;10282831;28;20055;-67
2021/01/25 10:31:18;;;;;;;32.17;16.05;;;;;;;1.13;83.40;100196.84;10300921;28;20085;-66
2021/01/25 10:36:14;;;;;;;32.58;17.33;;;;;;;1.27;83.09;100192.53;10289267;28;20049;-66
2021/01/25 10:41:12;;;;;;;33.40;17.50;;;;;;;1.35;82.67;100207.38;10289682;28;20090;-67
2021/01/25 10:46:09;;;;;;;33.28;19.05;;;;;;;1.45;82.12;100209.25;10288600;28;20055;-66
2021/01/25 10:51:09;;;;;;;33.95;17.60;;;;;;;1.50;81.90;100211.94;10290462;28;20101;-66
2021/01/25 10:56:06;;;;;;;33.90;17.70;;;;;;;1.47;81.36;100213.31;10301014;28;20048;-66
2021/01/25 11:01:04;;;;;;;36.40;18.30;;;;;;;1.44;81.62;100219.25;10288752;28;20060;-66
2021/01/25 11:06:00;;;;;;;33.17;18.05;;;;;;;1.44;81.91;100226.53;10291977;28;20059;-66
2021/01/25 11:10:56;;;;;;;28.77;16.95;;;;;;;1.72;81.03;100230.56;10292090;28;20076;-66
2021/01/25 11:15:53;;;;;;;32.35;17.70;;;;;;;1.80;80.49;100226.50;10285206;28;20045;-67
2021/01/25 11:20:53;;;;;;;27.83;15.65;;;;;;;1.79;79.71;100230.28;10285210;28;20045;-66
2021/01/25 11:25:50;;;;;;;26.42;14.80;;;;;;;1.83;80.46;100237.56;10263029;28;20052;-66
2021/01/25 11:31:08;;;;;;;26.42;15.65;;;;;;;2.06;80.07;100230.75;10277856;28;20478;-66
2021/01/25 11:36:07;;;;;;;27.55;16.85;;;;;;;1.96;79.50;100229.97;10279337;28;20059;-66
2021/01/25 11:41:05;;;;;;;34.05;18.10;;;;;;;1.89;79.08;100247.25;10278866;28;20055;-67
2021/01/25 11:46:02;;;;;;;32.50;17.75;;;;;;;1.79;79.86;100247.25;10276936;28;20048;-66
2021/01/25 11:57:31;;;;;;;26.70;15.70;;;;;;;1.51;80.58;100261.25;10285715;28;20051;-66
2021/01/25 12:02:30;;;;;;;26.70;14.75;;;;;;;1.49;80.91;100260.75;10289576;28;20060;-66
2021/01/25 12:08:17;;;;;;;;;;;;;;;;;;;;;
2021/01/25 12:13:14;;;;;;;26.67;14.88;;;;;;;1.53;80.65;100264.50;10299372;28;20131;-67
2021/01/25 12:18:11;;;;;;;25.40;14.23;;;;;;;1.60;80.58;100265.03;10293819;28;20044;-66
2021/01/25 12:23:23;;;;;;;24.42;14.43;;;;;;;1.57;81.17;100271.78;10298183;28;20441;-67
2021/01/25 12:28:22;;;;;;;19.60;11.82;;;;;;;1.64;80.31;100271.50;10302216;28;20143;-67
2021/01/25 12:33:20;;;;;;;20.50;13.00;;;;;;;1.72;80.68;100273.69;10289996;28;20052;-66
2021/01/25 12:44:17;;;;;;;21.95;12.57;;;;;;;1.46;80.64;100270.97;10283360;28;20143;-66
2021/01/25 12:49:18;;;;;;;22.52;13.85;;;;;;;1.61;80.12;100277.44;10281610;28;20078;-67
2021/01/25 12:54:18;;;;;;;19.83;12.45;;;;;;;1.68;79.75;100272.59;10281449;28;20044;-67
2021/01/25 12:59:18;;;;;;;24.77;13.07;;;;;;;1.70;80.75;100281.22;10290158;28;20055;-67
2021/01/25 13:04:14;;;;;;;27.23;15.20;;;;;;;1.93;80.07;100279.03;10290677;28;20569;-67
2021/01/25 13:09:10;;;;;;;23.23;15.40;;;;;;;1.90;79.98;100280.41;10290549;28;20502;-67
2021/01/25 13:14:48;;;;;;;28.55;15.65;;;;;;;1.97;79.42;100285.50;10303773;28;20056;-67
2021/01/25 13:19:53;;;;;;;21.60;12.82;;;;;;;2.04;79.09;100291.44;10299577;28;20051;-67
2021/01/25 13:24:55;;;;;;;22.73;15.15;;;;;;;2.19;79.28;100298.72;10306901;28;20049;-67
2021/01/25 13:29:54;;;;;;;26.98;15.80;;;;;;;2.13;79.66;100302.50;10287395;28;20048;-67
2021/01/25 13:35:11;;;;;;;28.63;17.57;;;;;;;2.08;79.35;100314.09;10294337;28;20114;-68
2021/01/25 13:40:08;;;;;;;26.67;15.35;;;;;;;2.16;79.30;100310.88;10290847;28;20041;-67
2021/01/25 13:45:06;;;;;;;28.58;14.40;;;;;;;2.07;79.89;100323.28;10289542;28;20059;-67
2021/01/25 13:50:06;;;;;;;31.35;15.68;;;;;;;2.06;80.04;100327.03;10288283;28;20205;-67
2021/01/25 13:55:14;;;;;;;27.50;16.00;;;;;;;1.95;80.67;100325.41;10293550;28;20044;-67
2021/01/25 14:00:24;;;;;;;24.17;14.38;;;;;;;2.11;80.00;100332.41;10283864;28;20059;-66
2021/01/25 14:05:32;;;;;;;24.90;15.38;;;;;;;2.14;80.39;100334.59;10283725;28;20127;-66
2021/01/25 14:10:30;;;;;;;21.23;13.70;;;;;;;2.21;79.71;100335.13;10292876;28;20051;-66
2021/01/25 14:15:33;;;;;;;24.73;14.75;;;;;;;2.19;79.98;100342.69;10280664;28;20054;-66
2021/01/25 14:20:44;;;;;;;27.85;15.52;;;;;;;2.37;79.77;100343.19;10309364;28;20055;-66
2021/01/25 14:25:41;;;;;;;29.48;14.90;;;;;;;2.41;79.43;100350.47;10294976;28;20372;-68
2021/01/25 14:36:24;;;;;;;23.85;14.05;;;;;;;2.35;80.71;100348.88;10310266;28;20165;-68
2021/01/25 14:41:31;;;;;;;22.85;12.35;;;;;;;2.25;80.34;100356.97;10308002;28;20102;-68
2021/01/25 14:46:40;;;;;;;19.17;12.70;;;;;;;2.34;80.37;100368.03;10304642;28;20640;-68
2021/01/25 14:51:36;;;;;;;17.40;11.35;;;;;;;2.27;80.17;100371.78;10282101;28;20521;-68
2021/01/25 14:56:32;;;;;;;19.25;12.30;;;;;;;2.33;80.50;100382.59;10290049;28;20115;-68
2021/01/25 15:01:28;;;;;;;16.42;11.88;;;;;;;2.30;79.97;100379.38;10301057;28;20105;-68
2021/01/25 15:06:25;;;;;;;18.67;12.25;;;;;;;2.24;80.32;100388.53;10290219;28;20052;-68
2021/01/25 15:11:30;;;;;;;20.23;11.95;;;;;;;2.11;80.75;100394.44;10279845;28;20048;-68
2021/01/25 15:16:43;;;;;;;21.23;13.73;;;;;;;2.21;80.65;100399.06;10182133;28;20123;-68
2021/01/25 15:21:39;;;;;;;21.90;14.20;;;;;;;2.24;80.64;100402.00;10287211;28;20052;-69
2021/01/25 15:26:43;;;;;;;20.90;13.85;;;;;;;2.15;80.07;100405.53;10291450;28;20102;-68
2021/01/25 15:31:48;;;;;;;20.35;13.02;;;;;;;2.14;80.32;100412.81;10290666;28;20055;-68
2021/01/25 15:36:56;;;;;;;;;;;;;;;;;;;;;
2021/01/25 15:42:01;;;;;;;16.70;9.45;;;;;;;2.01;80.62;100424.13;10283852;28;20604;-68
2021/01/25 15:46:57;;;;;;;15.93;8.02;;;;;;;2.00;80.38;100441.41;10275609;28;20072;-68
2021/01/25 15:52:05;;;;;;;13.38;8.80;;;;;;;2.06;80.34;100440.31;10286820;28;20052;-68
2021/01/25 15:57:02;;;;;;;12.50;7.20;;;;;;;2.06;80.32;100435.72;10277139;28;20457;-68
2021/01/25 16:02:01;;;;;;;10.15;5.75;;;;;;;1.94;80.08;100445.16;10292946;28;20053;-68
2021/01/25 16:07:00;;;;;;;6.70;3.78;;;;;;;1.88;80.56;100447.84;10287357;28;20064;-68
2021/01/25 16:11:57;;;;;;;5.72;2.92;;;;;;;1.93;79.84;100446.22;10277160;28;20052;-67
2021/01/25 16:16:53;;;;;;;6.88;3.55;;;;;;;1.93;80.00;100460.53;10287087;28;20072;-67
2021/01/25 16:21:54;;;;;;;5.28;2.45;;;;;;;1.97;79.94;100469.69;10283373;28;20060;-66
2021/01/25 16:26:50;;;;;;;5.03;2.47;;;;;;;1.96;79.92;100465.38;10277843;28;20074;-67
2021/01/25 16:31:46;;;;;;;5.43;1.90;;;;;;;1.97;79.37;100475.06;10278246;28;20048;-67
2021/01/25 16:36:42;;;;;;;6.45;2.38;;;;;;;1.93;79.58;100478.56;10285645;28;20154;-69
2021/01/25 16:41:38;;;;;;;4.95;1.60;;;;;;;1.94;79.34;100480.19;10282934;28;20060;-68
2021/01/25 16:46:36;;;;;;;4.10;1.42;;;;;;;1.87;79.59;100472.34;10289734;28;20049;-68
2021/01/25 16:51:32;;;;;;;4.90;2.20;;;;;;;1.80;80.09;100469.91;10278641;28;20178;-68
2021/01/25 16:56:28;;;;;;;5.63;2.45;;;;;;;1.78;80.46;100477.44;10286300;28;20778;-68
2021/01/25 17:01:24;;;;;;;5.18;2.58;;;;;;;1.57;81.08;100490.03;10274914;28;20052;-69
2021/01/25 17:06:21;;;;;;;6.82;2.78;;;;;;;1.57;81.79;100487.34;10275879;28;20048;-68
2021/01/25 17:11:17;;;;;;;6.20;2.65;;;;;;;1.57;81.94;100486.53;10287393;28;20592;-68
2021/01/25 17:16:13;;;;;;;6.55;2.88;;;;;;;1.50;82.18;100492.16;10301214;28;20471;-68
2021/01/25 17:21:09;;;;;;;7.05;2.83;;;;;;;1.43;82.41;100497.78;10289310;28;20048;-68
2021/01/25 17:26:05;;;;;;;6.80;3.10;;;;;;;1.40;82.20;100498.34;10291866;28;20048;-68
2021/01/25 17:31:02;;;;;;;6.30;2.78;;;;;;;1.39;81.95;100504.81;10277869;28;20048;-68
2021/01/25 17:35:59;;;;;;;6.68;3.03;;;;;;;1.34;81.79;100515.53;10280226;28;20118;-68
2021/01/25 17:40:58;;;;;;;7.05;2.70;;;;;;;1.26;82.39;100513.34;10279285;28;20124;-68
2021/01/25 17:46:11;;;;;;;6.03;2.90;;;;;;;1.25;82.29;100523.31;10291470;28;20095;-68
2021/01/25 17:51:08;;;;;;;6.03;2.95;;;;;;;1.26;82.30;100524.13;10295836;28;20076;-67
2021/01/25 17:56:05;;;;;;;4.82;2.55;;;;;;;1.19;82.27;100535.13;10297048;28;20048;-67
2021/01/25 18:01:02;;;;;;;7.55;3.28;;;;;;;1.20;82.27;100538.63;10291083;28;20086;-67
2021/01/25 18:05:59;;;;;;;7.88;2.78;;;;;;;1.13;81.86;100535.34;10290216;28;20056;-67
2021/01/25 18:10:56;;;;;;;7.22;3.45;;;;;;;0.97;81.71;100546.00;10296302;28;20121;-67
2021/01/25 18:15:53;;;;;;;8.15;2.40;;;;;;;0.84;81.74;100544.56;10293583;28;20045;-67
2021/01/25 18:20:49;;;;;;;6.68;3.10;;;;;;;0.78;81.66;100539.38;10294729;28;20065;-67
2021/01/25 18:25:45;;;;;;;7.80;3.40;;;;;;;0.72;81.36;100552.00;10297256;28;20095;-67
2021/01/25 18:30:41;;;;;;;9.07;3.90;;;;;;;0.66;81.39;100553.03;10295401;28;20110;-66
2021/01/25 18:35:38;;;;;;;6.65;3.53;;;;;;;0.57;81.32;100555.34;10272393;28;21366;-66
2021/01/25 18:40:36;;;;;;;8.75;3.55;;;;;;;0.51;81.42;100556.41;10288117;28;20036;-67
2021/01/25 18:45:35;;;;;;;9.35;4.20;;;;;;;0.48;81.78;100564.94;10297773;28;20526;-66
2021/01/25 18:50:31;;;;;;;7.75;3.53;;;;;;;0.42;81.48;100568.69;10292651;28;20053;-66
2021/01/25 18:55:28;;;;;;;11.38;5.25;;;;;;;0.41;81.39;100567.03;10283351;28;20136;-67
2021/01/25 19:00:27;;;;;;;11.15;5.20;;;;;;;0.35;81.80;100568.06;10293371;28;20080;-66
2021/01/25 19:05:25;;;;;;;14.48;6.20;;;;;;;0.30;81.90;100570.69;10306187;28;20048;-66
2021/01/25 19:10:25;;;;;;;13.05;6.45;;;;;;;0.26;81.86;100581.16;10286039;28;20117;-67
2021/01/25 19:15:25;;;;;;;10.95;5.25;;;;;;;0.22;81.85;100579.22;10290936;28;20056;-67
2021/01/25 19:20:24;;;;;;;15.77;7.35;;;;;;;0.18;81.90;100587.75;10291504;28;20781;-67
2021/01/25 19:25:22;;;;;;;15.95;8.80;;;;;;;0.12;82.11;100599.53;10284824;28;20043;-69
2021/01/25 19:30:20;;;;;;;14.65;9.27;;;;;;;0.07;82.48;100599.50;10291134;28;20078;-66
2021/01/25 19:35:17;;;;;;;16.02;9.38;;;;;;;0.00;82.74;100601.56;10278007;28;20069;-67
2021/01/25 19:40:18;;;;;;;27.40;15.13;;;;;;;0.29;83.74;100596.78;10285499;28;20709;-67
2021/01/25 19:45:23;;;;;;;30.08;16.90;;;;;;;0.47;84.49;100603.69;10283205;28;20048;-67
2021/01/25 19:50:20;;;;;;;30.90;18.83;;;;;;;0.59;84.50;100612.41;10282723;28;20037;-67
2021/01/25 19:55:18;;;;;;;36.67;19.65;;;;;;;0.68;84.43;100617.34;10281379;28;20154;-67
2021/01/25 20:00:27;;;;;;;33.40;18.25;;;;;;;0.63;84.47;100618.91;10272980;28;20044;-67
2021/01/25 20:05:24;;;;;;;34.60;18.77;;;;;;;0.70;84.48;100623.31;10281458;28;20094;-67
2021/01/25 20:10:23;;;;;;;34.70;18.75;;;;;;;0.67;84.23;100623.78;10294833;28;20048;-67
2021/01/25 20:15:21;;;;;;;34.67;20.73;;;;;;;0.71;83.76;100622.22;10284857;28;20056;-67
2021/01/25 20:20:18;;;;;;;35.42;22.05;;;;;;;0.69;83.94;100632.41;10287930;28;20047;-66
2021/01/25 20:25:35;;;;;;;36.63;20.40;;;;;;;0.67;83.81;100629.97;10294886;28;20075;-67
2021/01/25 20:30:32;;;;;;;34.53;19.77;;;;;;;0.71;83.38;100630.28;10279632;28;20072;-67
2021/01/25 20:35:37;;;;;;;30.95;19.58;;;;;;;0.75;83.36;100631.41;10283816;28;20458;-67
2021/01/25 20:40:33;;;;;;;35.35;20.75;;;;;;;0.75;82.74;100637.59;10281682;28;20075;-67
2021/01/25 20:45:36;;;;;;;30.02;18.08;;;;;;;0.78;82.73;100636.28;10286000;28;20438;-67
2021/01/25 20:50:35;;;;;;;33.60;18.83;;;;;;;0.77;82.77;100627.41;10286117;28;20083;-67
2021/01/25 20:55:31;;;;;;;31.23;18.77;;;;;;;0.76;83.06;100633.84;10284852;28;20498;-66
2021/01/25 21:00:32;;;;;;;31.33;18.25;;;;;;;0.77;82.63;100629.28;10273372;28;20052;-66
2021/01/25 21:05:28;;;;;;;33.30;19.08;;;;;;;0.78;82.46;100631.69;10274855;28;20064;-69
2021/01/25 21:10:26;;;;;;;33.17;17.00;;;;;;;0.77;82.11;100634.66;10285718;28;20041;-67
2021/01/25 21:15:31;;;;;;;30.33;18.23;;;;;;;0.69;82.11;100637.81;10283038;28;20044;-70
2021/01/25 21:20:27;;;;;;;28.55;17.33;;;;;;;0.56;81.50;100637.16;10299548;28;20044;-71
2021/01/25 21:25:32;;;;;;;35.15;18.70;;;;;;;0.46;81.40;100634.34;10284599;28;20041;-71
2021/01/25 21:30:31;;;;;;;30.58;18.08;;;;;;;0.32;81.28;100654.63;10286123;28;20045;-68
2021/01/25 21:35:32;;;;;;;33.53;18.92;;;;;;;0.18;82.17;100643.44;10276742;28;20689;-68
2021/01/25 21:40:29;;;;;;;34.03;18.90;;;;;;;0.08;81.62;100649.50;10284875;28;20383;-68
2021/01/25 21:45:31;;;;;;;41.67;20.92;;;;;;;0.06;81.98;100646.25;10292994;28;20121;-68
2021/01/25 21:50:28;;;;;;;32.35;19.20;;;;;;;-0.01;81.97;100654.47;10310192;28;20502;-68
2021/01/25 21:55:28;;;;;;;31.08;18.75;;;;;;;-0.04;81.69;100648.81;10303060;28;20449;-68
2021/01/25 22:00:26;;;;;;;29.67;18.00;;;;;;;-0.07;81.77;100651.97;10293947;28;20051;-69
2021/01/25 22:05:25;;;;;;;40.00;20.42;;;;;;;-0.02;82.01;100649.38;10296781;28;20108;-70
2021/01/25 22:10:22;;;;;;;35.42;19.58;;;;;;;-0.01;82.22;100651.00;10297184;28;20048;-70
2021/01/25 22:15:25;;;;;;;35.78;19.25;;;;;;;-0.03;81.92;100647.72;10304480;28;21493;-70
2021/01/25 22:20:24;;;;;;;33.03;19.35;;;;;;;-0.06;82.25;100648.25;10305705;28;20064;-70
2021/01/25 22:25:27;;;;;;;33.80;20.48;;;;;;;-0.06;81.95;100648.25;10303900;28;20051;-69
2021/01/25 22:30:24;;;;;;;38.63;21.45;;;;;;;0.00;82.20;100652.63;10291292;28;20105;-70
2021/01/25 22:35:24;;;;;;;29.70;19.35;;;;;;;0.05;82.61;100659.91;10293108;28;20110;-70
2021/01/25 22:40:25;;;;;;;34.10;22.15;;;;;;;0.15;82.58;100655.50;10297607;28;20048;-70
2021/01/25 22:45:24;;;;;;;33.63;21.27;;;;;;;0.25;82.62;100659.38;10295519;28;20095;-70
2021/01/25 22:50:21;;;;;;;37.50;22.77;;;;;;;0.35;82.94;100664.91;10292193;28;20071;-70
2021/01/25 22:55:20;;;;;;;37.95;22.77;;;;;;;0.47;82.70;100662.88;10297847;28;20049;-70
2021/01/25 23:00:41;;;;;;;37.58;22.38;;;;;;;0.44;82.55;100663.34;10290015;28;20544;-71
2021/01/25 23:05:40;;;;;;;42.53;23.52;;;;;;;0.26;82.61;100661.03;10292656;28;20056;-68
2021/01/25 23:10:38;;;;;;;38.33;22.35;;;;;;;0.25;82.28;100664.75;10306045;28;20057;-68
2021/01/25 23:15:38;;;;;;;40.38;23.98;;;;;;;0.23;82.85;100656.13;10298921;28;20064;-68
2021/01/25 23:20:34;;;;;;;38.85;22.08;;;;;;;0.23;82.45;100661.50;10301799;28;20410;-68
2021/01/25 23:25:30;;;;;;;43.58;23.30;;;;;;;0.26;82.32;100666.41;10296615;28;20056;-67